Detalii statie PROACUA CEFA [00001987]

Toti senzorii

Date Temperatura solului [C]Precipitatii [mm]Voltaj baterie [mV]Leaf Wetness [Min]HC Air temperature [C]HC Relative humidity [%]Punctul de roua [C]
medieminmaxsumaultimatimpmedieminmaxmediemediemin
2018-08-12 11:00:00 0 7314 27.67 26.86 28.81 0 0 0
2018-08-12 12:00:00 0 7314 28.81 28.04 29.93 0 0 0
2018-08-12 13:00:00 0 7324 30 28.6 30.69 0 0 0
2018-08-12 14:00:00 0 7284 30.9 29.72 31.81 0 0 0
2018-08-12 15:00:00 0 7098 30.82 29.46 32.33 0 0 0
2018-08-12 16:00:00 0 7274 32.03 30.65 32.91 0 0 0
2018-08-12 17:00:00 1.2 7274 31.53 30.25 32.76 0 0 0
2018-08-12 18:00:00 0 7274 30.19 29.04 31.17 0 0 0
2018-08-12 19:00:00 1 6992 28.59 28.19 28.93 0 0 0
2018-08-12 20:00:00 0 6844 25.53 23.94 27.51 59.66 16.2 0
2018-08-12 21:00:00 0 6826 23.99 23.54 24.43 45.35 0
2018-08-12 22:00:00 0 6826 24.83 23.68 25.5 0 0 0
2018-08-12 23:00:00 0 6834 22.86 22.22 23.95 0 0 0
2018-08-13 00:00:00 0 6826 22.71 22.12 22.93 0 0 0
2018-08-13 01:00:00 0 6816 20.79 19.93 21.97 0 0 0
2018-08-13 02:00:00 0 6826 20.12 19.93 20.36 16.66 3.3 0
2018-08-13 03:00:00 0 6826 19.8 19.6 20.1 0 0 0
2018-08-13 04:00:00 0 6816 19.5 19.19 19.72 0 0 0
2018-08-13 05:00:00 0 6826 18.75 18.43 19 0 0 0
2018-08-13 06:00:00 0.4 6834 18.11 17.95 18.43 0 0 0
2018-08-13 07:00:00 0 6972 19.05 18.26 20.45 0 0 0
2018-08-13 08:00:00 0 7040 22.57 20.73 24.11 0 0 0
2018-08-13 09:00:00 0 7314 25.77 24.42 26.71 0 0 0
2018-08-13 10:00:00 0 7324 27.65 26.54 28.55 0 0 0
2018-08-13 11:00:00 0.6 7324 29.34 28.57 30.19 0 0 0
2018-08-13 12:00:00 0 7314 30.47 29.89 30.9 0 0 0
2018-08-13 13:00:00 0 7314 30.96 30.13 31.82 0 0 0
2018-08-13 14:00:00 0 7294 32.01 31.54 32.34 0 0 0
2018-08-13 15:00:00 0 7070 32.43 31.67 32.84 0 0 0
2018-08-13 16:00:00 0 7274 32.76 32.46 33.11 8.33 0
2018-08-13 17:00:00 0.2 7274 31.94 30.98 32.49 0 0 0
2018-08-13 18:00:00 0 6972 32 31.31 32.68 6.56 0
2018-08-13 19:00:00 0 6932 30.34 28.35 31.49 0 0 0
2018-08-13 20:00:00 0 6834 26.59 25.82 27.76 0 0 0
2018-08-13 21:00:00 0 6844 25.48 24.56 26.2 5.8 0
2018-08-13 22:00:00 0 6844 22.76 21.75 24.1 7.76 0
2018-08-13 23:00:00 0 6844 20.82 20.3 21.43 0 0 0
2018-08-14 00:00:00 0 6826 20.4 20.13 20.7 0 0 0
2018-08-14 01:00:00 0 6826 19.71 19.37 20.06 0 0 0
2018-08-14 02:00:00 0 6826 19.6 19.44 20.03 0 0 0
2018-08-14 03:00:00 0 6826 19.99 19.62 20.32 0 0 0
2018-08-14 04:00:00 0 6816 20.14 19.82 20.47 0 0 0
2018-08-14 05:00:00 0 6816 19.74 19.06 20.13 0 0 0
2018-08-14 06:00:00 1.4 6834 19.16 18.93 19.35 0 0 0
2018-08-14 07:00:00 0 6972 19.79 19.18 20.8 0 0 0
2018-08-14 08:00:00 0 7040 22.76 21.04 24.51 41.29 0
2018-08-14 09:00:00 0 7324 26 24.49 27.14 8.33 0
2018-08-14 10:00:00 0 7314 28.02 27.31 29.06 0 0 0